Time;durP1;ratioP1;P1;durP2;ratioP2;P2;SDS_P1;SDS_P2;PMS_P1;PMS_P2;Temp;Humidity;BMP_temperature;BMP_pressure;BME280_temperature;BME280_humidity;BME280_pressure;Samples;Min_cycle;Max_cycle;Signal;HPM_P1;HPM_P2
2022/10/20 00:01:00;;;;;;;11.82;9.60;;;;;;;;;;4991590;28;20125;-75
2022/10/20 00:03:28;;;;;;;8.98;8.15;;;;;;;;;;4988422;28;20137;-76
2022/10/20 00:06:05;;;;;;;10.88;8.13;;;;;;;;;;4988297;28;20049;-75
2022/10/20 00:08:32;;;;;;;23.00;9.82;;;;;;;;;;4991202;28;20461;-75
2022/10/20 00:10:59;;;;;;;11.13;8.85;;;;;;;;;;5006698;28;20105;-75
2022/10/20 00:13:27;;;;;;;18.70;11.48;;;;;;;;;;4993908;28;20513;-74
2022/10/20 00:15:54;;;;;;;13.02;10.27;;;;;;;;;;4992780;28;20056;-74
2022/10/20 00:18:22;;;;;;;9.20;8.02;;;;;;;;;;4985823;28;20695;-74
2022/10/20 00:20:50;;;;;;;9.70;8.70;;;;;;;;;;5003752;28;20121;-74
2022/10/20 00:23:18;;;;;;;10.40;7.47;;;;;;;;;;4989184;28;20196;-74
2022/10/20 00:25:45;;;;;;;8.80;6.70;;;;;;;;;;4986841;28;20080;-75
2022/10/20 00:28:13;;;;;;;10.18;7.25;;;;;;;;;;5004523;28;20038;-75
2022/10/20 00:30:40;;;;;;;10.70;7.28;;;;;;;;;;4985227;28;20045;-75
2022/10/20 00:33:07;;;;;;;8.35;7.55;;;;;;;;;;4988123;28;20038;-75
2022/10/20 00:35:37;;;;;;;8.20;7.40;;;;;;;;;;4989856;28;20038;-74
2022/10/20 00:38:05;;;;;;;13.52;9.43;;;;;;;;;;5003509;28;20568;-74
2022/10/20 00:40:32;;;;;;;12.32;8.77;;;;;;;;;;4968643;28;20050;-75
2022/10/20 00:42:59;;;;;;;9.52;8.52;;;;;;;;;;4988061;28;20034;-76
2022/10/20 00:45:26;;;;;;;7.43;6.70;;;;;;;;;;4987071;28;20483;-75
2022/10/20 00:47:56;;;;;;;8.90;7.93;;;;;;;;;;4988485;28;20065;-74
2022/10/20 00:50:32;;;;;;;7.93;6.45;;;;;;;;;;4984742;28;20532;-75
2022/10/20 00:53:01;;;;;;;10.57;6.90;;;;;;;;;;4990165;28;20041;-76
2022/10/20 00:55:30;;;;;;;8.40;7.32;;;;;;;;;;4988996;28;20928;-75
2022/10/20 00:57:58;;;;;;;8.30;7.50;;;;;;;;;;4988669;28;20133;-75
2022/10/20 01:00:25;;;;;;;9.40;6.38;;;;;;;;;;5004335;28;20121;-76
2022/10/20 01:02:54;;;;;;;13.60;7.68;;;;;;;;;;4984559;28;20042;-74
2022/10/20 01:05:21;;;;;;;8.02;7.22;;;;;;;;;;4998916;28;20043;-75
2022/10/20 01:07:48;;;;;;;10.23;6.80;;;;;;;;;;4985723;28;20045;-74
2022/10/20 01:10:16;;;;;;;7.72;6.90;;;;;;;;;;4985811;28;20050;-75
2022/10/20 01:12:52;;;;;;;10.75;7.15;;;;;;;;;;4985269;28;20049;-75
2022/10/20 01:15:25;;;;;;;10.95;7.38;;;;;;;;;;4970115;28;20046;-75
2022/10/20 01:17:58;;;;;;;7.65;6.43;;;;;;;;;;4981881;28;20046;-75
2022/10/20 01:20:26;;;;;;;9.07;7.75;;;;;;;;;;4994278;28;20057;-75
2022/10/20 01:22:56;;;;;;;10.32;7.70;;;;;;;;;;4968509;28;20061;-75
2022/10/20 01:25:50;;;;;;;12.43;8.75;;;;;;;;;;4985525;28;20043;-74
2022/10/20 01:28:33;;;;;;;9.80;7.65;;;;;;;;;;4989910;28;20101;-76
2022/10/20 01:31:03;;;;;;;12.40;6.10;;;;;;;;;;4992369;28;20046;-75
2022/10/20 01:33:36;;;;;;;6.88;6.28;;;;;;;;;;4989266;28;20062;-76
2022/10/20 01:36:16;;;;;;;7.93;6.35;;;;;;;;;;5004924;28;20039;-75
2022/10/20 01:38:48;;;;;;;6.93;6.22;;;;;;;;;;4989943;28;20038;-75
2022/10/20 01:41:31;;;;;;;8.18;6.05;;;;;;;;;;4990378;28;20058;-75
2022/10/20 01:44:00;;;;;;;6.63;6.03;;;;;;;;;;4992305;28;20045;-75
2022/10/20 01:46:27;;;;;;;9.32;6.30;;;;;;;;;;4994135;28;20038;-75
2022/10/20 01:48:55;;;;;;;7.70;6.57;;;;;;;;;;4989531;28;20046;-75
2022/10/20 01:51:22;;;;;;;7.38;6.50;;;;;;;;;;4997719;28;20152;-75
2022/10/20 01:53:49;;;;;;;8.30;6.93;;;;;;;;;;4986512;28;20054;-76
2022/10/20 01:56:23;;;;;;;8.20;6.40;;;;;;;;;;4992900;28;20053;-75
2022/10/20 01:59:10;;;;;;;9.65;6.97;;;;;;;;;;4987501;28;20543;-74
2022/10/20 02:01:45;;;;;;;8.70;6.88;;;;;;;;;;4988008;28;20043;-75
2022/10/20 02:04:13;;;;;;;11.48;7.18;;;;;;;;;;4988858;28;20149;-74
2022/10/20 02:06:57;;;;;;;14.95;6.57;;;;;;;;;;5005866;28;20042;-74
2022/10/20 02:09:44;;;;;;;11.43;6.68;;;;;;;;;;4988930;28;20050;-74
2022/10/20 02:12:16;;;;;;;13.98;6.45;;;;;;;;;;4989316;28;20157;-75
2022/10/20 02:14:43;;;;;;;15.40;6.22;;;;;;;;;;5007917;28;20125;-77
2022/10/20 02:17:13;;;;;;;6.93;6.00;;;;;;;;;;4999059;28;20307;-75
2022/10/20 02:19:41;;;;;;;5.53;5.05;;;;;;;;;;4986852;28;20081;-75
2022/10/20 02:22:10;;;;;;;8.35;6.32;;;;;;;;;;4990424;28;20849;-75
2022/10/20 02:24:39;;;;;;;9.50;6.50;;;;;;;;;;5009250;28;20124;-75
2022/10/20 02:27:15;;;;;;;8.85;6.80;;;;;;;;;;4988253;28;20076;-75
2022/10/20 02:29:45;;;;;;;11.30;6.05;;;;;;;;;;4989821;28;20043;-76
2022/10/20 02:32:13;;;;;;;18.17;6.18;;;;;;;;;;4988275;28;20492;-76
2022/10/20 02:34:41;;;;;;;14.50;5.88;;;;;;;;;;4992597;28;20167;-75
2022/10/20 02:37:08;;;;;;;6.78;6.15;;;;;;;;;;4988660;28;20043;-75
2022/10/20 02:39:36;;;;;;;14.13;5.93;;;;;;;;;;4990886;28;20144;-75
2022/10/20 02:42:03;;;;;;;10.00;6.50;;;;;;;;;;4994331;28;20116;-75
2022/10/20 02:44:30;;;;;;;9.60;6.97;;;;;;;;;;5002323;28;20050;-75
2022/10/20 02:46:58;;;;;;;7.50;6.13;;;;;;;;;;4988499;28;20049;-73
2022/10/20 02:49:26;;;;;;;12.98;6.88;;;;;;;;;;4990029;28;20056;-75
2022/10/20 02:51:53;;;;;;;7.47;6.30;;;;;;;;;;4990827;28;20136;-74
2022/10/20 02:54:20;;;;;;;8.85;6.22;;;;;;;;;;5004122;28;20536;-75
2022/10/20 02:56:47;;;;;;;11.38;6.85;;;;;;;;;;4991259;28;20046;-75
2022/10/20 02:59:15;;;;;;;7.15;6.47;;;;;;;;;;4986635;28;20046;-75
2022/10/20 03:01:43;;;;;;;7.28;5.53;;;;;;;;;;5001266;28;20059;-75
2022/10/20 03:04:11;;;;;;;6.47;5.85;;;;;;;;;;4999114;28;20046;-75
2022/10/20 03:06:39;;;;;;;6.82;6.13;;;;;;;;;;4992129;28;20039;-74
2022/10/20 03:09:08;;;;;;;9.40;5.85;;;;;;;;;;4991415;28;20061;-74
2022/10/20 03:11:36;;;;;;;12.80;6.45;;;;;;;;;;4982624;28;20513;-76
2022/10/20 03:14:03;;;;;;;6.88;5.90;;;;;;;;;;4996381;28;20046;-75
2022/10/20 03:16:30;;;;;;;8.82;5.82;;;;;;;;;;4990963;28;20071;-76
2022/10/20 03:18:58;;;;;;;8.98;6.22;;;;;;;;;;4971455;28;20046;-76
2022/10/20 03:21:31;;;;;;;7.32;6.22;;;;;;;;;;4990658;28;20058;-74
2022/10/20 03:23:59;;;;;;;8.73;6.80;;;;;;;;;;4990528;28;20501;-75
2022/10/20 03:26:26;;;;;;;8.05;5.80;;;;;;;;;;5009463;28;20101;-75
2022/10/20 03:28:53;;;;;;;7.65;5.57;;;;;;;;;;4993100;28;20125;-75
2022/10/20 03:31:20;;;;;;;8.98;6.40;;;;;;;;;;5003113;28;20058;-75
2022/10/20 03:33:47;;;;;;;8.38;6.45;;;;;;;;;;4999611;28;20397;-74
2022/10/20 03:36:15;;;;;;;8.52;6.03;;;;;;;;;;4992094;28;20042;-75
2022/10/20 03:38:42;;;;;;;7.15;6.20;;;;;;;;;;4988614;28;20045;-75
2022/10/20 03:41:09;;;;;;;8.43;5.95;;;;;;;;;;4985517;28;20529;-74
2022/10/20 03:43:38;;;;;;;11.25;8.90;;;;;;;;;;4996344;28;20052;-75
2022/10/20 03:46:07;;;;;;;6.63;5.75;;;;;;;;;;4987675;28;20048;-75
2022/10/20 03:48:34;;;;;;;8.30;6.55;;;;;;;;;;4990527;28;20050;-75
2022/10/20 03:51:02;;;;;;;6.80;6.15;;;;;;;;;;4983932;28;20038;-76
2022/10/20 03:53:30;;;;;;;8.07;6.25;;;;;;;;;;4993394;28;20580;-75
2022/10/20 03:55:57;;;;;;;7.15;6.45;;;;;;;;;;4986234;28;20536;-73
2022/10/20 03:58:24;;;;;;;7.72;6.90;;;;;;;;;;4988056;28;20043;-75
2022/10/20 04:00:52;;;;;;;10.07;7.18;;;;;;;;;;5002985;28;20049;-75
2022/10/20 04:03:19;;;;;;;7.55;6.85;;;;;;;;;;4983374;28;20129;-75
2022/10/20 04:05:46;;;;;;;7.28;6.53;;;;;;;;;;5006239;28;20041;-77
2022/10/20 04:08:13;;;;;;;7.22;6.53;;;;;;;;;;4991366;28;20034;-75
2022/10/20 04:10:45;;;;;;;6.97;6.28;;;;;;;;;;4985581;28;20053;-75
2022/10/20 04:13:12;;;;;;;6.63;6.03;;;;;;;;;;4989868;28;20042;-75
2022/10/20 04:15:40;;;;;;;7.90;6.47;;;;;;;;;;4984350;28;20042;-75
2022/10/20 04:18:07;;;;;;;6.20;5.57;;;;;;;;;;4996286;28;20052;-75
2022/10/20 04:20:35;;;;;;;7.68;5.22;;;;;;;;;;4993504;28;20061;-75
2022/10/20 04:23:05;;;;;;;7.80;5.95;;;;;;;;;;4995705;28;20136;-81
2022/10/20 04:25:32;;;;;;;7.97;6.85;;;;;;;;;;4989388;28;20046;-75
2022/10/20 04:27:59;;;;;;;8.57;5.78;;;;;;;;;;4992940;28;20046;-74
2022/10/20 04:30:27;;;;;;;7.95;6.15;;;;;;;;;;4985488;28;20050;-75
2022/10/20 04:32:54;;;;;;;7.78;6.43;;;;;;;;;;4989086;28;20117;-76
2022/10/20 04:35:21;;;;;;;7.20;6.50;;;;;;;;;;4998844;28;20141;-75
2022/10/20 04:37:49;;;;;;;6.13;5.07;;;;;;;;;;4985688;28;20046;-74
2022/10/20 04:40:16;;;;;;;8.13;6.38;;;;;;;;;;4987998;28;20050;-76
2022/10/20 04:42:43;;;;;;;7.75;6.70;;;;;;;;;;4993650;28;20045;-74
2022/10/20 04:45:10;;;;;;;8.40;6.57;;;;;;;;;;4972873;28;20046;-75
2022/10/20 04:47:38;;;;;;;10.82;6.88;;;;;;;;;;4989267;28;20042;-75
2022/10/20 04:50:06;;;;;;;6.65;5.95;;;;;;;;;;4982976;28;20046;-75
2022/10/20 04:52:33;;;;;;;8.25;6.80;;;;;;;;;;4988953;28;20042;-74
2022/10/20 04:55:00;;;;;;;7.55;6.40;;;;;;;;;;5002174;28;20224;-75
2022/10/20 04:57:27;;;;;;;7.90;7.10;;;;;;;;;;4970073;28;20069;-74
2022/10/20 04:59:55;;;;;;;7.63;5.75;;;;;;;;;;4989000;28;20045;-75
2022/10/20 05:02:23;;;;;;;10.30;6.47;;;;;;;;;;4986218;28;20046;-75
2022/10/20 05:04:50;;;;;;;9.07;7.03;;;;;;;;;;4985540;28;20035;-75
2022/10/20 05:07:18;;;;;;;7.03;6.25;;;;;;;;;;4987821;28;20516;-75
2022/10/20 05:09:45;;;;;;;10.77;7.18;;;;;;;;;;4986048;28;20489;-75
2022/10/20 05:12:12;;;;;;;7.13;5.82;;;;;;;;;;4989718;28;20050;-74
2022/10/20 05:14:40;;;;;;;7.85;7.05;;;;;;;;;;4992174;28;20053;-75
2022/10/20 05:17:07;;;;;;;7.15;6.45;;;;;;;;;;4987239;28;20070;-74
2022/10/20 05:19:36;;;;;;;13.57;8.77;;;;;;;;;;4978537;28;20048;-75
2022/10/20 05:22:03;;;;;;;8.52;7.60;;;;;;;;;;4987282;28;20519;-75
2022/10/20 05:24:30;;;;;;;7.57;6.80;;;;;;;;;;4987880;28;20146;-77
2022/10/20 05:26:57;;;;;;;7.93;7.13;;;;;;;;;;5006951;28;20559;-75
2022/10/20 05:29:25;;;;;;;12.15;6.88;;;;;;;;;;4996789;28;20089;-74
2022/10/20 05:31:52;;;;;;;9.48;7.25;;;;;;;;;;4987163;28;20035;-75
2022/10/20 05:34:19;;;;;;;10.68;7.38;;;;;;;;;;4991596;28;20128;-75
2022/10/20 05:36:46;;;;;;;7.82;5.97;;;;;;;;;;4994918;28;20047;-74
2022/10/20 05:39:14;;;;;;;9.52;7.18;;;;;;;;;;4993518;28;20034;-75
2022/10/20 05:41:41;;;;;;;12.60;7.13;;;;;;;;;;4988153;28;20505;-75
2022/10/20 05:44:08;;;;;;;9.38;7.05;;;;;;;;;;5090254;23;20048;-74
2022/10/20 05:46:41;;;;;;;11.00;7.00;;;;;;;;;;5006673;28;20072;-74
2022/10/20 05:49:14;;;;;;;15.98;8.07;;;;;;;;;;5004434;28;20129;-76
2022/10/20 05:51:41;;;;;;;7.63;6.93;;;;;;;;;;5009682;28;20943;-76
2022/10/20 05:54:10;;;;;;;8.15;6.88;;;;;;;;;;5021642;28;20500;-75
2022/10/20 05:56:37;;;;;;;7.90;7.07;;;;;;;;;;4982766;28;20615;-76
2022/10/20 05:59:04;;;;;;;7.88;7.05;;;;;;;;;;5010773;28;20046;-76
2022/10/20 06:01:46;;;;;;;11.00;8.73;;;;;;;;;;5000483;28;20052;-78
2022/10/20 06:04:15;;;;;;;11.80;7.47;;;;;;;;;;5001990;28;20124;-76
2022/10/20 06:06:43;;;;;;;11.23;8.38;;;;;;;;;;5002411;28;20045;-76
2022/10/20 06:09:11;;;;;;;11.10;8.80;;;;;;;;;;5005960;28;20100;-76
2022/10/20 06:11:38;;;;;;;12.18;9.00;;;;;;;;;;5018573;28;20041;-76
2022/10/20 06:14:07;;;;;;;10.73;8.93;;;;;;;;;;5006136;28;20053;-76
2022/10/20 06:16:34;;;;;;;10.63;7.75;;;;;;;;;;4995194;28;20046;-77
2022/10/20 06:19:02;;;;;;;11.38;8.82;;;;;;;;;;5009652;28;20034;-76
2022/10/20 06:21:30;;;;;;;11.63;8.70;;;;;;;;;;5010420;28;20038;-76
2022/10/20 06:23:58;;;;;;;10.65;8.65;;;;;;;;;;5005365;28;20139;-77
2022/10/20 06:26:31;;;;;;;9.18;7.85;;;;;;;;;;5006070;28;20034;-77
2022/10/20 06:28:59;;;;;;;9.70;8.57;;;;;;;;;;5004759;28;20042;-77
2022/10/20 06:31:31;;;;;;;19.27;11.07;;;;;;;;;;5007459;28;20049;-78
2022/10/20 06:33:59;;;;;;;11.98;10.48;;;;;;;;;;5009516;28;20046;-77
2022/10/20 06:36:27;;;;;;;13.55;9.88;;;;;;;;;;5021330;28;20045;-77
2022/10/20 06:38:55;;;;;;;11.57;9.90;;;;;;;;;;5008230;28;20045;-77
2022/10/20 06:41:23;;;;;;;9.93;8.98;;;;;;;;;;5022106;28;20034;-77
2022/10/20 06:43:56;;;;;;;11.23;9.65;;;;;;;;;;5009574;28;20064;-77
2022/10/20 06:46:26;;;;;;;12.57;8.50;;;;;;;;;;5009005;28;20053;-80
2022/10/20 06:48:53;;;;;;;12.02;10.52;;;;;;;;;;5009006;28;20069;-79
2022/10/20 06:51:25;;;;;;;12.25;11.05;;;;;;;;;;5008789;28;20042;-77
2022/10/20 06:53:52;;;;;;;13.68;10.52;;;;;;;;;;5008659;28;20136;-77
2022/10/20 06:56:24;;;;;;;14.50;12.43;;;;;;;;;;5007369;28;20073;-75
2022/10/20 06:58:51;;;;;;;;;;;;;;;;;;5011668;28;20066;-77
2022/10/20 07:01:22;;;;;;;15.65;11.48;;;;;;;;;;5009891;28;19979;-77
2022/10/20 07:03:50;;;;;;;15.50;11.32;;;;;;;;;;5001525;28;20790;-84
2022/10/20 07:06:18;;;;;;;13.32;11.73;;;;;;;;;;5009595;28;20141;-77
2022/10/20 07:08:46;;;;;;;13.30;11.75;;;;;;;;;;5009117;28;20509;-77
2022/10/20 07:11:15;;;;;;;14.48;11.15;;;;;;;;;;5008566;28;20073;-77
2022/10/20 07:13:43;;;;;;;12.15;10.18;;;;;;;;;;4991491;28;20526;-77
2022/10/20 07:16:14;;;;;;;13.55;11.38;;;;;;;;;;5007481;28;20125;-76
2022/10/20 07:18:41;;;;;;;15.10;11.40;;;;;;;;;;5007289;28;20042;-77
2022/10/20 07:21:12;;;;;;;15.73;10.90;;;;;;;;;;5017623;28;20403;-79
2022/10/20 07:23:39;;;;;;;10.93;9.10;;;;;;;;;;5000418;28;20046;-77
2022/10/20 07:26:08;;;;;;;12.50;8.65;;;;;;;;;;5008920;28;20042;-77
2022/10/20 07:28:35;;;;;;;10.88;9.27;;;;;;;;;;5005627;28;20291;-75
2022/10/20 07:31:04;;;;;;;13.85;8.60;;;;;;;;;;5008642;28;20121;-75
2022/10/20 07:33:32;;;;;;;9.55;7.97;;;;;;;;;;5002347;28;20119;-75
2022/10/20 07:35:59;;;;;;;10.75;7.72;;;;;;;;;;5009871;28;20073;-75
2022/10/20 07:38:27;;;;;;;8.68;7.82;;;;;;;;;;4999668;28;20050;-75
2022/10/20 07:41:01;;;;;;;9.40;7.70;;;;;;;;;;5001367;28;20034;-75
2022/10/20 07:43:28;;;;;;;9.35;6.70;;;;;;;;;;5013195;28;20429;-75
2022/10/20 07:45:55;;;;;;;8.90;6.28;;;;;;;;;;5016076;28;20048;-75
2022/10/20 07:48:22;;;;;;;11.20;7.05;;;;;;;;;;5004172;28;20069;-76
2022/10/20 07:50:49;;;;;;;10.02;6.40;;;;;;;;;;5008992;28;20607;-76
2022/10/20 07:53:17;;;;;;;8.02;6.47;;;;;;;;;;5009938;28;20053;-76
2022/10/20 07:55:44;;;;;;;11.48;6.60;;;;;;;;;;5009400;28;20073;-76
2022/10/20 07:58:12;;;;;;;10.63;6.60;;;;;;;;;;5008347;28;20061;-75
2022/10/20 08:00:39;;;;;;;8.68;6.32;;;;;;;;;;5006178;28;20049;-77
2022/10/20 08:03:11;;;;;;;9.10;6.82;;;;;;;;;;5010020;28;20042;-77
2022/10/20 08:05:38;;;;;;;6.85;6.25;;;;;;;;;;5026027;28;20489;-77
2022/10/20 08:08:06;;;;;;;6.32;5.70;;;;;;;;;;5020812;28;20065;-77
2022/10/20 08:10:33;;;;;;;8.18;5.93;;;;;;;;;;5006974;28;20791;-77
2022/10/20 08:13:00;;;;;;;9.98;5.68;;;;;;;;;;5010433;28;20050;-77
2022/10/20 08:15:27;;;;;;;6.43;5.75;;;;;;;;;;5010781;28;20056;-77
2022/10/20 08:17:54;;;;;;;6.28;5.68;;;;;;;;;;5010857;28;20041;-77
2022/10/20 08:20:22;;;;;;;5.55;5.05;;;;;;;;;;5009801;28;20088;-81
2022/10/20 08:22:53;;;;;;;7.63;4.78;;;;;;;;;;5009841;28;20040;-77
2022/10/20 08:25:20;;;;;;;10.90;5.93;;;;;;;;;;5011685;28;20054;-79
2022/10/20 08:27:48;;;;;;;8.38;5.38;;;;;;;;;;5019821;28;20034;-78
2022/10/20 08:30:15;;;;;;;9.48;5.35;;;;;;;;;;5010972;28;20052;-78
2022/10/20 08:32:51;;;;;;;6.10;4.47;;;;;;;;;;5010021;28;20575;-78
2022/10/20 08:35:19;;;;;;;6.05;4.20;;;;;;;;;;5023207;28;20555;-77
2022/10/20 08:37:46;;;;;;;5.65;4.38;;;;;;;;;;4996448;28;20046;-78
2022/10/20 08:40:16;;;;;;;4.82;4.22;;;;;;;;;;4993183;28;20101;-79
2022/10/20 08:42:44;;;;;;;11.70;4.32;;;;;;;;;;4993267;28;20069;-78
2022/10/20 08:45:16;;;;;;;7.13;4.00;;;;;;;;;;4990951;28;20046;-78
2022/10/20 08:47:44;;;;;;;5.78;3.17;;;;;;;;;;5008561;28;20041;-76
2022/10/20 08:50:15;;;;;;;3.65;2.47;;;;;;;;;;5007464;28;20412;-75
2022/10/20 08:52:43;;;;;;;3.92;3.20;;;;;;;;;;5009159;28;20069;-75
2022/10/20 08:55:30;;;;;;;3.72;3.30;;;;;;;;;;5003196;28;20052;-75
2022/10/20 08:58:05;;;;;;;7.78;6.97;;;;;;;;;;4999875;28;20054;-76
2022/10/20 09:00:37;;;;;;;5.45;2.85;;;;;;;;;;5000913;28;20512;-75
2022/10/20 09:03:16;;;;;;;3.20;2.35;;;;;;;;;;4991484;28;20062;-76
2022/10/20 09:05:45;;;;;;;4.30;2.00;;;;;;;;;;5007629;28;20042;-75
2022/10/20 09:08:12;;;;;;;2.38;2.10;;;;;;;;;;4991401;28;20050;-75
2022/10/20 09:10:50;;;;;;;6.00;2.78;;;;;;;;;;5007858;28;20050;-76
2022/10/20 09:13:22;;;;;;;1.88;1.60;;;;;;;;;;5008709;28;20509;-79
2022/10/20 09:15:51;;;;;;;2.83;1.50;;;;;;;;;;5007517;28;20057;-76
2022/10/20 09:18:19;;;;;;;2.15;1.83;;;;;;;;;;5007336;28;20065;-76
2022/10/20 09:20:48;;;;;;;3.90;1.70;;;;;;;;;;5009023;28;20046;-76
2022/10/20 09:23:17;;;;;;;6.80;2.88;;;;;;;;;;5009363;28;20128;-75
2022/10/20 09:26:04;;;;;;;3.15;1.83;;;;;;;;;;5009752;28;20069;-75
2022/10/20 09:28:31;;;;;;;1.58;1.48;;;;;;;;;;5010847;28;20048;-76
2022/10/20 09:31:27;;;;;;;1.98;1.60;;;;;;;;;;5009657;28;20096;-75
2022/10/20 09:33:55;;;;;;;3.05;1.70;;;;;;;;;;5009569;28;20050;-78
2022/10/20 09:36:23;;;;;;;1.98;1.80;;;;;;;;;;5009861;28;20048;-74
2022/10/20 09:38:51;;;;;;;1.67;1.58;;;;;;;;;;4999568;28;20042;-75
2022/10/20 09:41:23;;;;;;;1.95;1.75;;;;;;;;;;4991015;28;20056;-76
2022/10/20 09:44:06;;;;;;;3.42;1.65;;;;;;;;;;5008886;28;20471;-75
2022/10/20 09:46:43;;;;;;;3.47;1.80;;;;;;;;;;5009742;28;20058;-75
2022/10/20 09:49:26;;;;;;;2.15;1.85;;;;;;;;;;4991549;28;20069;-76
2022/10/20 09:51:54;;;;;;;1.65;1.55;;;;;;;;;;5008144;28;20038;-74
2022/10/20 09:54:23;;;;;;;1.55;1.48;;;;;;;;;;4996720;28;20092;-74
2022/10/20 09:56:51;;;;;;;2.53;1.48;;;;;;;;;;5001570;28;20052;-74
2022/10/20 09:59:27;;;;;;;1.98;1.60;;;;;;;;;;4999496;28;20235;-75
2022/10/20 10:01:56;;;;;;;2.30;1.80;;;;;;;;;;4999566;28;20072;-73
2022/10/20 10:04:31;;;;;;;1.83;1.73;;;;;;;;;;5007565;28;20038;-74
2022/10/20 10:06:59;;;;;;;1.73;1.63;;;;;;;;;;5002488;28;20168;-74
2022/10/20 10:09:33;;;;;;;2.35;1.70;;;;;;;;;;5003788;28;20041;-84
2022/10/20 10:12:12;;;;;;;4.30;2.33;;;;;;;;;;5002395;28;20041;-77
2022/10/20 10:14:51;;;;;;;2.00;1.90;;;;;;;;;;5005759;28;20050;-75
2022/10/20 10:17:35;;;;;;;2.75;1.63;;;;;;;;;;4975616;28;20052;-77
2022/10/20 10:20:23;;;;;;;1.73;1.63;;;;;;;;;;5010427;28;20129;-76
2022/10/20 10:22:51;;;;;;;4.00;1.75;;;;;;;;;;4997969;28;20053;-76
2022/10/20 10:25:24;;;;;;;2.63;1.60;;;;;;;;;;5011182;28;20053;-77
2022/10/20 10:28:07;;;;;;;2.80;1.30;;;;;;;;;;5010197;28;20080;-77
2022/10/20 10:30:37;;;;;;;1.77;1.58;;;;;;;;;;5012057;28;20042;-77
2022/10/20 10:33:37;;;;;;;1.70;1.60;;;;;;;;;;5008962;28;20042;-79
2022/10/20 10:36:43;;;;;;;2.80;1.63;;;;;;;;;;4996291;28;20103;-75
2022/10/20 10:39:12;;;;;;;1.95;1.58;;;;;;;;;;4987402;28;20057;-76
2022/10/20 10:41:51;;;;;;;1.73;1.63;;;;;;;;;;5010270;28;20066;-77
2022/10/20 10:44:31;;;;;;;2.08;1.60;;;;;;;;;;5007089;28;20101;-78
2022/10/20 10:47:04;;;;;;;4.10;1.75;;;;;;;;;;4998746;28;20576;-77
2022/10/20 10:49:31;;;;;;;1.80;1.50;;;;;;;;;;5002945;28;20034;-77
2022/10/20 10:52:01;;;;;;;1.60;1.50;;;;;;;;;;4995815;28;20494;-77
2022/10/20 10:54:29;;;;;;;1.90;1.70;;;;;;;;;;5005006;28;20073;-77
2022/10/20 10:56:58;;;;;;;2.13;1.70;;;;;;;;;;5022915;28;20088;-77
2022/10/20 10:59:36;;;;;;;1.60;1.50;;;;;;;;;;5017193;28;20080;-77
2022/10/20 11:02:18;;;;;;;1.85;1.70;;;;;;;;;;5012007;28;20053;-77
2022/10/20 11:05:00;;;;;;;3.20;1.65;;;;;;;;;;5010653;28;20046;-76
2022/10/20 11:07:27;;;;;;;1.70;1.60;;;;;;;;;;4995275;28;20049;-77
2022/10/20 11:10:13;;;;;;;1.85;1.40;;;;;;;;;;5002507;28;20041;-77
2022/10/20 11:12:56;;;;;;;2.15;1.50;;;;;;;;;;5011109;28;20292;-77
2022/10/20 11:15:28;;;;;;;2.15;1.50;;;;;;;;;;5012586;28;20045;-77
2022/10/20 11:18:02;;;;;;;3.75;1.42;;;;;;;;;;5011474;28;20081;-77
2022/10/20 11:20:30;;;;;;;6.28;1.50;;;;;;;;;;5009613;28;20464;-77
2022/10/20 11:23:00;;;;;;;1.63;1.52;;;;;;;;;;5005746;28;20050;-77
2022/10/20 11:25:32;;;;;;;6.28;1.40;;;;;;;;;;5011199;28;20042;-76
2022/10/20 11:28:00;;;;;;;1.27;1.27;;;;;;;;;;5009727;28;20074;-77
2022/10/20 11:30:28;;;;;;;2.00;1.80;;;;;;;;;;5005900;28;20497;-77
2022/10/20 11:32:59;;;;;;;2.03;1.83;;;;;;;;;;5011322;28;20488;-77
2022/10/20 11:35:30;;;;;;;3.03;1.70;;;;;;;;;;5011343;28;20096;-84
2022/10/20 11:38:01;;;;;;;1.63;1.45;;;;;;;;;;5008933;28;20398;-77
2022/10/20 11:40:30;;;;;;;1.60;1.50;;;;;;;;;;5020713;28;20070;-77
2022/10/20 11:43:05;;;;;;;1.58;1.48;;;;;;;;;;5008872;28;20503;-78
2022/10/20 11:45:49;;;;;;;1.70;1.48;;;;;;;;;;5005185;28;20053;-78
2022/10/20 11:48:20;;;;;;;1.52;1.42;;;;;;;;;;5017565;28;20228;-76
2022/10/20 11:51:04;;;;;;;1.67;1.55;;;;;;;;;;5011007;28;20076;-77
2022/10/20 11:53:43;;;;;;;2.30;1.30;;;;;;;;;;5009387;28;20073;-77
2022/10/20 11:56:21;;;;;;;1.77;1.50;;;;;;;;;;5011191;28;20100;-77
2022/10/20 11:59:13;;;;;;;1.38;1.20;;;;;;;;;;5024447;28;20070;-77
2022/10/20 12:01:54;;;;;;;2.22;1.33;;;;;;;;;;5006620;28;20133;-77
2022/10/20 12:04:38;;;;;;;2.00;1.80;;;;;;;;;;5010514;28;20046;-77
2022/10/20 12:07:24;;;;;;;1.95;1.20;;;;;;;;;;5009113;28;20111;-86
2022/10/20 12:09:55;;;;;;;2.13;1.38;;;;;;;;;;5009248;28;20468;-77
2022/10/20 12:12:32;;;;;;;1.40;1.30;;;;;;;;;;5007999;28;20084;-78
2022/10/20 12:15:01;;;;;;;4.80;1.50;;;;;;;;;;5006709;28;20050;-77
2022/10/20 12:17:34;;;;;;;6.32;1.90;;;;;;;;;;5009072;28;20538;-78
2022/10/20 12:20:20;;;;;;;1.73;1.40;;;;;;;;;;4992120;28;20042;-87
2022/10/20 12:22:49;;;;;;;3.88;1.42;;;;;;;;;;5008202;28;20115;-77
2022/10/20 12:25:19;;;;;;;13.60;2.17;;;;;;;;;;5008114;28;20034;-77
2022/10/20 12:27:46;;;;;;;1.50;1.40;;;;;;;;;;5007744;28;20089;-78
2022/10/20 12:30:34;;;;;;;3.10;1.60;;;;;;;;;;5016129;28;20508;-78
2022/10/20 12:33:27;;;;;;;3.00;1.40;;;;;;;;;;4983508;28;20100;-78
2022/10/20 12:35:59;;;;;;;2.47;1.60;;;;;;;;;;4967887;28;20050;-81
2022/10/20 12:38:28;;;;;;;1.13;1.02;;;;;;;;;;5001753;28;20041;-75
2022/10/20 12:40:57;;;;;;;1.90;1.45;;;;;;;;;;5006458;28;20694;-82
2022/10/20 12:43:37;;;;;;;1.30;1.20;;;;;;;;;;4975177;28;20095;-77
2022/10/20 12:46:07;;;;;;;1.35;1.35;;;;;;;;;;4991130;28;20076;-77
2022/10/20 12:48:38;;;;;;;1.98;1.20;;;;;;;;;;5004464;28;20046;-77
2022/10/20 12:51:07;;;;;;;1.43;1.33;;;;;;;;;;5006345;28;20521;-76
2022/10/20 12:53:34;;;;;;;2.60;1.23;;;;;;;;;;5006086;28;20069;-77
2022/10/20 12:56:10;;;;;;;1.52;1.42;;;;;;;;;;5006933;28;20050;-77
2022/10/20 12:58:38;;;;;;;3.47;2.30;;;;;;;;;;5008830;28;20057;-77
2022/10/20 13:01:11;;;;;;;7.53;3.00;;;;;;;;;;5008042;28;20574;-76
2022/10/20 13:03:42;;;;;;;2.10;1.95;;;;;;;;;;5008415;28;20152;-76
2022/10/20 13:06:22;;;;;;;2.03;1.88;;;;;;;;;;5004266;28;20038;-77
2022/10/20 13:09:05;;;;;;;2.28;1.83;;;;;;;;;;5005752;28;20549;-78
2022/10/20 13:11:39;;;;;;;2.15;1.92;;;;;;;;;;5006833;28;20515;-76
2022/10/20 13:14:13;;;;;;;2.88;1.77;;;;;;;;;;5006844;28;20046;-77
2022/10/20 13:16:44;;;;;;;2.40;2.20;;;;;;;;;;5007060;28;20413;-78
2022/10/20 13:19:18;;;;;;;2.90;1.70;;;;;;;;;;5008673;28;20100;-77
2022/10/20 13:21:45;;;;;;;2.83;1.48;;;;;;;;;;5006775;28;20049;-77
2022/10/20 13:24:38;;;;;;;7.10;1.55;;;;;;;;;;5004655;28;20080;-79
2022/10/20 13:27:11;;;;;;;1.65;1.55;;;;;;;;;;5006734;28;20148;-78
2022/10/20 13:29:42;;;;;;;5.32;1.70;;;;;;;;;;5008660;28;20042;-77
2022/10/20 13:32:29;;;;;;;1.90;1.60;;;;;;;;;;5007918;28;20077;-77
2022/10/20 13:35:01;;;;;;;6.18;1.40;;;;;;;;;;5008764;28;20042;-85
2022/10/20 13:37:51;;;;;;;5.78;1.60;;;;;;;;;;5008497;28;20045;-76
2022/10/20 13:40:18;;;;;;;1.90;1.70;;;;;;;;;;5002231;28;20052;-77
2022/10/20 13:43:03;;;;;;;2.10;1.52;;;;;;;;;;5007224;28;20033;-77
2022/10/20 13:45:49;;;;;;;8.15;2.00;;;;;;;;;;5006684;28;20046;-77
2022/10/20 13:48:29;;;;;;;4.82;1.63;;;;;;;;;;5007138;28;20034;-77
2022/10/20 13:50:58;;;;;;;2.38;1.60;;;;;;;;;;5005568;28;20052;-77
2022/10/20 13:53:27;;;;;;;1.60;1.50;;;;;;;;;;5006909;28;20493;-77
2022/10/20 13:56:04;;;;;;;3.63;1.80;;;;;;;;;;5001015;28;20066;-78
2022/10/20 13:58:31;;;;;;;2.10;2.00;;;;;;;;;;5000780;28;20101;-77
2022/10/20 14:01:03;;;;;;;2.00;1.90;;;;;;;;;;4997832;28;20809;-77
2022/10/20 14:03:35;;;;;;;3.53;2.15;;;;;;;;;;5003980;28;20049;-76
2022/10/20 14:06:02;;;;;;;3.40;2.55;;;;;;;;;;4997228;28;20052;-77
2022/10/20 14:08:29;;;;;;;5.25;2.58;;;;;;;;;;5000592;28;20033;-77
2022/10/20 14:10:59;;;;;;;4.82;2.30;;;;;;;;;;5000911;28;20048;-78
2022/10/20 14:13:34;;;;;;;4.00;2.80;;;;;;;;;;5007530;28;20046;-77
2022/10/20 14:16:03;;;;;;;4.32;2.60;;;;;;;;;;4999701;28;20472;-78
2022/10/20 14:18:38;;;;;;;4.25;2.50;;;;;;;;;;4985379;28;20104;-78
2022/10/20 14:21:07;;;;;;;4.68;3.15;;;;;;;;;;5007767;28;20046;-77
2022/10/20 14:23:36;;;;;;;3.88;2.33;;;;;;;;;;5003658;28;20069;-76
2022/10/20 14:26:06;;;;;;;3.05;2.75;;;;;;;;;;4985355;28;20410;-76
2022/10/20 14:28:34;;;;;;;28.73;14.57;;;;;;;;;;4999824;28;20047;-76
2022/10/20 14:31:01;;;;;;;35.60;22.58;;;;;;;;;;5001097;28;20057;-76
2022/10/20 14:33:29;;;;;;;32.80;20.38;;;;;;;;;;4997815;28;20475;-76
2022/10/20 14:35:58;;;;;;;23.10;14.68;;;;;;;;;;5028486;28;20467;-76
2022/10/20 14:38:25;;;;;;;6.75;4.15;;;;;;;;;;5004663;28;20467;-76
2022/10/20 14:40:54;;;;;;;10.13;4.93;;;;;;;;;;5004570;28;20034;-76
2022/10/20 14:43:40;;;;;;;4.50;3.63;;;;;;;;;;5022484;28;20042;-77
2022/10/20 14:46:09;;;;;;;10.02;3.78;;;;;;;;;;5008253;28;20103;-76
2022/10/20 14:48:38;;;;;;;7.07;3.72;;;;;;;;;;5005795;28;20579;-76
2022/10/20 14:51:24;;;;;;;12.02;3.60;;;;;;;;;;4984878;28;20057;-77
2022/10/20 14:53:51;;;;;;;3.40;3.10;;;;;;;;;;5003077;28;20045;-76
2022/10/20 14:56:24;;;;;;;5.85;3.03;;;;;;;;;;5007381;28;20041;-77
2022/10/20 14:58:59;;;;;;;6.28;3.13;;;;;;;;;;5007711;28;20092;-77
2022/10/20 15:01:30;;;;;;;3.13;2.83;;;;;;;;;;5023859;28;20045;-77